createdAt,value
2022-10-04T00:00:14.368Z,11.40
2022-10-04T00:01:14.311Z,11.44
2022-10-04T00:02:14.375Z,11.41
2022-10-04T00:03:14.336Z,11.41
2022-10-04T00:04:14.273Z,11.48
2022-10-04T00:05:14.325Z,11.55
2022-10-04T00:06:14.267Z,11.50
2022-10-04T00:07:14.307Z,11.43
2022-10-04T00:08:14.232Z,11.40
2022-10-04T00:09:14.294Z,11.50
2022-10-04T00:10:14.215Z,11.48
2022-10-04T00:11:14.288Z,11.51
2022-10-04T00:12:14.189Z,11.52
2022-10-04T00:13:14.184Z,11.47
2022-10-04T00:14:14.164Z,11.45
2022-10-04T00:15:14.235Z,11.45
2022-10-04T00:16:14.218Z,11.51
2022-10-04T00:17:14.190Z,11.51
2022-10-04T00:18:14.142Z,11.52
2022-10-04T00:19:14.136Z,11.45
2022-10-04T00:20:14.100Z,11.48
2022-10-04T00:21:14.085Z,11.48
2022-10-04T00:22:14.101Z,11.36
2022-10-04T00:23:14.147Z,11.50
2022-10-04T00:24:14.085Z,11.50
2022-10-04T00:25:14.041Z,11.45
2022-10-04T00:26:14.031Z,11.43
2022-10-04T00:27:14.022Z,11.40
2022-10-04T00:28:14.069Z,11.41
2022-10-04T00:29:14.087Z,11.41
2022-10-04T00:30:13.986Z,11.36
2022-10-04T00:31:14.017Z,11.33
2022-10-04T00:32:13.967Z,11.44
2022-10-04T00:33:13.974Z,11.44
2022-10-04T00:34:13.970Z,11.44
2022-10-04T00:35:13.958Z,11.33
2022-10-04T00:36:13.919Z,11.33
2022-10-04T00:37:13.932Z,11.43
2022-10-04T00:38:13.927Z,11.44
2022-10-04T00:39:13.890Z,11.40
2022-10-04T00:40:13.880Z,11.36
2022-10-04T00:41:13.951Z,11.35
2022-10-04T00:42:13.851Z,11.37
2022-10-04T00:43:21.542Z,11.27
2022-10-04T00:44:20.820Z,11.25
2022-10-04T00:45:20.814Z,11.18
2022-10-04T00:46:21.300Z,11.19
2022-10-04T00:47:13.806Z,11.12
2022-10-04T00:48:13.780Z,11.07
2022-10-04T00:49:13.776Z,11.11
2022-10-04T00:50:13.781Z,11.19
2022-10-04T00:51:13.748Z,11.10
2022-10-04T00:52:13.753Z,11.17
2022-10-04T00:53:13.751Z,11.18
2022-10-04T00:54:13.723Z,11.23
2022-10-04T00:55:13.729Z,11.18
2022-10-04T00:56:13.693Z,11.25
2022-10-04T00:57:13.796Z,11.26
2022-10-04T00:58:13.707Z,11.23
2022-10-04T00:59:13.826Z,11.22
2022-10-04T01:00:13.646Z,11.32
2022-10-04T01:01:13.697Z,11.33
2022-10-04T01:02:13.721Z,11.32
2022-10-04T01:03:13.637Z,11.35
2022-10-04T01:04:13.621Z,11.36
2022-10-04T01:05:13.615Z,11.30
2022-10-04T01:06:13.612Z,11.37
2022-10-04T01:07:13.573Z,11.45
2022-10-04T01:08:13.559Z,11.41
2022-10-04T01:09:13.551Z,11.37
2022-10-04T01:10:13.569Z,11.37
2022-10-04T01:11:14.160Z,11.35
2022-10-04T01:12:13.537Z,11.45
2022-10-04T01:13:13.497Z,11.45
2022-10-04T01:14:13.494Z,11.44
2022-10-04T01:15:13.479Z,11.45
2022-10-04T01:16:13.513Z,11.45
2022-10-04T01:17:13.461Z,11.41
2022-10-04T01:18:13.457Z,11.44
2022-10-04T01:19:13.530Z,11.43
2022-10-04T01:20:13.418Z,11.37
2022-10-04T01:21:13.438Z,11.45
2022-10-04T01:22:13.461Z,11.40
2022-10-04T01:23:13.386Z,11.35
2022-10-04T01:24:13.405Z,11.40
2022-10-04T01:25:13.369Z,11.35
2022-10-04T01:26:13.358Z,11.37
2022-10-04T01:27:13.349Z,11.37
2022-10-04T01:28:13.572Z,11.40
2022-10-04T01:29:13.328Z,11.37
2022-10-04T01:30:13.314Z,11.37
2022-10-04T01:31:13.336Z,11.35
2022-10-04T01:32:13.307Z,11.35
2022-10-04T01:33:13.278Z,11.41
2022-10-04T01:34:13.328Z,11.40
2022-10-04T01:35:13.256Z,11.43
2022-10-04T01:36:13.247Z,11.45
2022-10-04T01:37:13.236Z,11.37
2022-10-04T01:38:13.286Z,11.36
2022-10-04T01:39:13.207Z,11.45
2022-10-04T01:40:13.247Z,11.36
2022-10-04T01:41:13.184Z,11.45
2022-10-04T01:42:13.241Z,11.41
2022-10-04T01:43:13.174Z,11.44
2022-10-04T01:44:13.155Z,11.47
2022-10-04T01:45:13.145Z,11.40
2022-10-04T01:46:13.377Z,11.40
2022-10-04T01:47:13.122Z,11.50
2022-10-04T01:48:13.203Z,11.41
2022-10-04T01:49:13.102Z,11.45
2022-10-04T01:50:15.814Z,11.35
2022-10-04T01:51:13.081Z,11.35
2022-10-04T01:52:13.110Z,11.48
2022-10-04T01:53:13.056Z,11.48
2022-10-04T01:54:13.064Z,11.40
2022-10-04T01:55:13.106Z,11.41
2022-10-04T01:56:13.020Z,11.44
2022-10-04T01:57:13.071Z,11.50
2022-10-04T01:58:13.013Z,11.43
2022-10-04T01:59:13.014Z,11.41
2022-10-04T02:00:12.968Z,11.44
2022-10-04T02:01:13.103Z,11.47
2022-10-04T02:02:12.962Z,11.37
2022-10-04T02:03:12.946Z,11.43
2022-10-04T02:04:13.001Z,11.40
2022-10-04T02:05:12.915Z,11.45
2022-10-04T02:06:12.921Z,11.35
2022-10-04T02:07:12.902Z,11.52
2022-10-04T02:08:12.884Z,11.45
2022-10-04T02:09:12.883Z,11.47
2022-10-04T02:10:12.901Z,11.37
2022-10-04T02:11:12.951Z,11.52
2022-10-04T02:12:12.845Z,11.50
2022-10-04T02:13:12.848Z,11.48
2022-10-04T02:14:12.822Z,11.50
2022-10-04T02:15:12.809Z,11.43
2022-10-04T02:16:12.912Z,11.50
2022-10-04T02:17:12.896Z,11.45
2022-10-04T02:18:12.773Z,11.50
2022-10-04T02:19:12.763Z,11.51
2022-10-04T02:20:12.749Z,11.45
2022-10-04T02:21:13.675Z,11.51
2022-10-04T02:22:12.764Z,11.52
2022-10-04T02:23:12.721Z,11.44
2022-10-04T02:24:12.713Z,11.52
2022-10-04T02:25:12.698Z,11.50
2022-10-04T02:26:12.729Z,11.44
2022-10-04T02:27:12.672Z,11.45
2022-10-04T02:28:12.791Z,11.52
2022-10-04T02:29:12.654Z,11.45
2022-10-04T02:30:12.657Z,11.47
2022-10-04T02:31:12.743Z,11.50
2022-10-04T02:32:12.612Z,11.54
2022-10-04T02:33:12.608Z,11.48
2022-10-04T02:34:12.639Z,11.52
2022-10-04T02:35:12.604Z,11.48
2022-10-04T02:36:12.576Z,11.48
2022-10-04T02:37:12.563Z,11.47
2022-10-04T02:38:12.576Z,11.47
2022-10-04T02:39:12.532Z,11.43
2022-10-04T02:40:12.680Z,11.45
2022-10-04T02:41:12.514Z,11.33
2022-10-04T02:42:12.542Z,11.41
2022-10-04T02:43:12.500Z,11.36
2022-10-04T02:44:12.507Z,11.36
2022-10-04T02:45:12.477Z,11.30
2022-10-04T02:46:12.536Z,11.22
2022-10-04T02:47:12.449Z,11.25
2022-10-04T02:48:12.539Z,11.12
2022-10-04T02:49:12.427Z,11.18
2022-10-04T02:50:12.448Z,11.10
2022-10-04T02:51:12.407Z,11.14
2022-10-04T02:52:12.461Z,11.07
2022-10-04T02:53:12.382Z,11.05
2022-10-04T02:54:12.372Z,11.00
2022-10-04T02:55:12.357Z,11.05
2022-10-04T02:56:12.353Z,11.04
2022-10-04T02:57:12.342Z,11.11
2022-10-04T02:58:12.384Z,11.07
2022-10-04T02:59:12.312Z,11.12
2022-10-04T03:00:12.411Z,11.02
2022-10-04T03:01:12.307Z,11.07
2022-10-04T03:02:12.296Z,11.08
2022-10-04T03:03:12.270Z,11.10
2022-10-04T03:04:12.309Z,11.10
2022-10-04T03:05:12.243Z,11.00
2022-10-04T03:06:12.232Z,11.02
2022-10-04T03:07:12.225Z,11.02
2022-10-04T03:08:12.209Z,11.00
2022-10-04T03:09:12.203Z,11.02
2022-10-04T03:10:12.318Z,10.99
2022-10-04T03:11:12.180Z,10.94
2022-10-04T03:12:12.270Z,11.02
2022-10-04T03:13:12.149Z,11.02
2022-10-04T03:14:12.164Z,10.94
2022-10-04T03:15:12.132Z,10.97
2022-10-04T03:16:12.226Z,11.02
2022-10-04T03:17:12.137Z,11.00
2022-10-04T03:18:12.099Z,10.94
2022-10-04T03:19:12.077Z,10.99
2022-10-04T03:20:12.072Z,10.94
2022-10-04T03:21:12.089Z,10.89
2022-10-04T03:22:12.087Z,10.97
2022-10-04T03:23:12.051Z,10.92
2022-10-04T03:24:12.025Z,11.00
2022-10-04T03:25:12.022Z,10.99
2022-10-04T03:26:12.057Z,10.96
2022-10-04T03:27:11.989Z,10.96
2022-10-04T03:28:12.078Z,10.90
2022-10-04T03:29:11.968Z,10.89
2022-10-04T03:30:12.004Z,10.89
2022-10-04T03:31:11.976Z,10.86
2022-10-04T03:32:11.935Z,10.93
2022-10-04T03:33:11.924Z,10.90
2022-10-04T03:34:11.964Z,10.84
2022-10-04T03:35:11.902Z,10.81
2022-10-04T03:36:11.998Z,10.86
2022-10-04T03:37:11.875Z,10.78
2022-10-04T03:38:11.866Z,10.79
2022-10-04T03:39:11.855Z,10.75
2022-10-04T03:40:11.860Z,10.76
2022-10-04T03:41:11.929Z,10.74
2022-10-04T03:42:11.819Z,10.74
2022-10-04T03:43:11.813Z,10.74
2022-10-04T03:44:11.795Z,10.67
2022-10-04T03:45:11.781Z,10.64
2022-10-04T03:46:11.929Z,10.63
2022-10-04T03:47:11.775Z,10.61
2022-10-04T03:48:11.851Z,10.59
2022-10-04T03:49:11.743Z,10.53
2022-10-04T03:50:11.731Z,10.56
2022-10-04T03:51:11.734Z,10.51
2022-10-04T03:52:11.848Z,10.57
2022-10-04T03:53:11.692Z,10.54
2022-10-04T03:54:11.699Z,10.51
2022-10-04T03:55:11.674Z,10.56
2022-10-04T03:56:11.662Z,10.54
2022-10-04T03:57:11.650Z,10.49
2022-10-04T03:58:11.741Z,10.56
2022-10-04T03:59:11.626Z,10.57
2022-10-04T04:00:11.709Z,10.53
2022-10-04T04:01:11.671Z,10.56
2022-10-04T04:02:11.766Z,10.49
2022-10-04T04:03:11.576Z,10.57
2022-10-04T04:04:11.618Z,10.49
2022-10-04T04:05:11.554Z,10.54
2022-10-04T04:06:11.547Z,10.64
2022-10-04T04:07:11.533Z,10.51
2022-10-04T04:08:11.547Z,10.60
2022-10-04T04:09:11.510Z,10.64
2022-10-04T04:10:16.029Z,10.63
2022-10-04T04:11:12.487Z,10.64
2022-10-04T04:12:11.469Z,10.63
2022-10-04T04:13:11.493Z,10.71
2022-10-04T04:14:11.451Z,10.72
2022-10-04T04:15:11.463Z,10.63
2022-10-04T04:16:11.540Z,10.74
2022-10-04T04:17:11.424Z,10.75
2022-10-04T04:18:11.533Z,10.74
2022-10-04T04:19:11.394Z,10.69
2022-10-04T04:20:11.526Z,10.78
2022-10-04T04:21:11.379Z,10.78
2022-10-04T04:22:11.457Z,10.78
2022-10-04T04:23:11.358Z,10.78
2022-10-04T04:24:11.339Z,10.74
2022-10-04T04:25:11.326Z,10.75
2022-10-04T04:26:11.321Z,10.75
2022-10-04T04:27:11.314Z,10.84
2022-10-04T04:28:11.355Z,10.78
2022-10-04T04:29:11.317Z,10.74
2022-10-04T04:30:11.277Z,10.84
2022-10-04T04:31:11.346Z,10.78
2022-10-04T04:32:11.351Z,10.78
2022-10-04T04:33:11.357Z,10.81
2022-10-04T04:34:11.269Z,10.86
2022-10-04T04:35:11.235Z,10.79
2022-10-04T04:36:11.204Z,10.78
2022-10-04T04:37:11.190Z,10.76
2022-10-04T04:38:11.196Z,10.79
2022-10-04T04:39:11.183Z,10.78
2022-10-04T04:40:11.199Z,10.71
2022-10-04T04:41:11.167Z,10.76
2022-10-04T04:42:11.149Z,10.69
2022-10-04T04:43:11.123Z,10.71
2022-10-04T04:44:11.178Z,10.68
2022-10-04T04:45:11.101Z,10.68
2022-10-04T04:46:28.139Z,10.68
2022-10-04T04:47:15.198Z,10.74
2022-10-04T04:48:12.068Z,10.69
2022-10-04T04:49:11.050Z,10.67
2022-10-04T04:50:11.065Z,10.74
2022-10-04T04:51:11.024Z,10.68
2022-10-04T04:52:11.028Z,10.72
2022-10-04T04:53:11.013Z,10.78
2022-10-04T04:54:11.000Z,10.76
2022-10-04T04:55:10.983Z,10.84
2022-10-04T04:56:13.446Z,10.79
2022-10-04T04:57:10.959Z,10.82
2022-10-04T04:58:10.989Z,10.84
2022-10-04T04:59:10.941Z,10.87
2022-10-04T05:00:10.949Z,10.87
2022-10-04T05:01:10.978Z,10.87
2022-10-04T05:02:10.959Z,10.96
2022-10-04T05:03:10.901Z,10.94
2022-10-04T05:04:10.956Z,10.99
2022-10-04T05:05:10.873Z,10.97
2022-10-04T05:06:10.886Z,11.04
2022-10-04T05:07:10.855Z,11.05
2022-10-04T05:08:10.850Z,11.10
2022-10-04T05:09:10.824Z,11.10
2022-10-04T05:10:10.829Z,11.07
2022-10-04T05:11:10.802Z,11.18
2022-10-04T05:12:10.810Z,11.25
2022-10-04T05:13:10.781Z,11.22
2022-10-04T05:14:10.788Z,11.22
2022-10-04T05:15:11.205Z,11.25
2022-10-04T05:16:10.851Z,11.36
2022-10-04T05:17:10.737Z,11.36
2022-10-04T05:18:10.736Z,11.37
2022-10-04T05:19:10.714Z,11.35
2022-10-04T05:20:10.699Z,11.44
2022-10-04T05:21:10.695Z,11.54
2022-10-04T05:22:10.748Z,11.52
2022-10-04T05:23:10.772Z,11.52
2022-10-04T05:24:18.140Z,11.51
2022-10-04T05:25:18.294Z,11.45
2022-10-04T05:26:17.621Z,11.57
2022-10-04T05:27:10.628Z,11.50
2022-10-04T05:28:17.947Z,11.47
2022-10-04T05:29:10.600Z,11.47
2022-10-04T05:30:10.583Z,11.51
2022-10-04T05:31:10.576Z,11.48
2022-10-04T05:32:10.664Z,11.54
2022-10-04T05:33:10.567Z,11.59
2022-10-04T05:34:10.560Z,11.52
2022-10-04T05:35:10.530Z,11.65
2022-10-04T05:36:10.545Z,11.66
2022-10-04T05:37:10.618Z,11.63
2022-10-04T05:38:10.534Z,11.68
2022-10-04T05:39:10.497Z,11.72
2022-10-04T05:40:10.505Z,11.81
2022-10-04T05:41:10.492Z,11.80
2022-10-04T05:42:10.450Z,11.86
2022-10-04T05:43:10.463Z,11.86
2022-10-04T05:44:10.438Z,11.84
2022-10-04T05:45:10.417Z,11.99
2022-10-04T05:46:10.552Z,11.94
2022-10-04T05:47:10.616Z,11.99
2022-10-04T05:48:10.407Z,11.97
2022-10-04T05:49:10.402Z,11.97
2022-10-04T05:50:10.356Z,12.02
2022-10-04T05:51:10.351Z,12.03
2022-10-04T05:52:10.369Z,12.02
2022-10-04T05:53:10.343Z,12.10
2022-10-04T05:54:10.914Z,12.17
2022-10-04T05:55:10.321Z,12.03
2022-10-04T05:56:10.290Z,12.21
2022-10-04T05:57:10.279Z,12.22
2022-10-04T05:58:10.296Z,12.29
2022-10-04T05:59:10.279Z,12.27
2022-10-04T06:00:10.265Z,12.32
2022-10-04T06:01:10.373Z,12.32
2022-10-04T06:02:10.286Z,12.39
2022-10-04T06:03:10.207Z,12.31
2022-10-04T06:04:10.258Z,12.39
2022-10-04T06:05:10.197Z,12.40
2022-10-04T06:06:10.173Z,12.46
2022-10-04T06:07:10.172Z,12.43
2022-10-04T06:08:10.153Z,12.45
2022-10-04T06:09:10.139Z,12.37
2022-10-04T06:10:10.215Z,12.42
2022-10-04T06:11:10.117Z,12.43
2022-10-04T06:12:10.115Z,12.36
2022-10-04T06:13:10.097Z,12.40
2022-10-04T06:14:10.082Z,12.31
2022-10-04T06:15:10.102Z,12.32
2022-10-04T06:16:10.077Z,12.27
2022-10-04T06:17:10.136Z,12.32
2022-10-04T06:18:10.040Z,12.37
2022-10-04T06:19:10.168Z,12.40
2022-10-04T06:20:10.022Z,12.43
2022-10-04T06:21:10.036Z,12.60
2022-10-04T06:22:10.025Z,12.65
2022-10-04T06:23:10.145Z,12.70
2022-10-04T06:24:09.977Z,12.73
2022-10-04T06:25:09.960Z,12.83
2022-10-04T06:26:09.997Z,12.76
2022-10-04T06:27:09.937Z,12.91
2022-10-04T06:28:10.054Z,13.04
2022-10-04T06:29:09.919Z,13.11
2022-10-04T06:30:09.941Z,13.20
2022-10-04T06:31:09.933Z,13.28
2022-10-04T06:32:09.880Z,13.47
2022-10-04T06:33:09.870Z,13.59
2022-10-04T06:34:09.898Z,13.59
2022-10-04T06:35:09.847Z,13.68
2022-10-04T06:36:09.840Z,13.72
2022-10-04T06:37:09.831Z,13.70
2022-10-04T06:38:09.817Z,13.74
2022-10-04T06:39:09.804Z,13.83
2022-10-04T06:40:09.834Z,13.79
2022-10-04T06:41:09.778Z,13.87
2022-10-04T06:42:09.825Z,13.78
2022-10-04T06:43:09.760Z,13.85
2022-10-04T06:44:09.747Z,13.79
2022-10-04T06:45:09.751Z,13.63
2022-10-04T06:46:09.841Z,13.72
2022-10-04T06:47:09.710Z,13.72
2022-10-04T06:48:09.710Z,13.71
2022-10-04T06:49:09.686Z,13.68
2022-10-04T06:50:09.682Z,13.68
2022-10-04T06:51:09.663Z,13.67
2022-10-04T06:52:09.717Z,13.65
2022-10-04T06:53:09.639Z,13.74
2022-10-04T06:54:09.651Z,13.62
2022-10-04T06:55:09.644Z,13.68
2022-10-04T06:56:09.609Z,13.71
2022-10-04T06:57:09.605Z,13.72
2022-10-04T06:58:09.647Z,13.72
2022-10-04T06:59:09.571Z,13.81
2022-10-04T07:00:09.568Z,13.77
2022-10-04T07:01:09.641Z,13.89
2022-10-04T07:02:09.607Z,13.85
2022-10-04T07:03:09.565Z,13.95
2022-10-04T07:04:09.667Z,13.86
2022-10-04T07:05:09.916Z,13.89
2022-10-04T07:06:09.505Z,13.89
2022-10-04T07:07:09.513Z,14.00
2022-10-04T07:08:09.477Z,14.08
2022-10-04T07:09:09.464Z,14.05
2022-10-04T07:10:09.472Z,14.10
2022-10-04T07:11:12.332Z,14.05
2022-10-04T07:12:09.428Z,14.07
2022-10-04T07:13:09.432Z,14.05
2022-10-04T07:14:09.470Z,14.10
2022-10-04T07:15:09.394Z,14.12
2022-10-04T07:16:09.528Z,14.08
2022-10-04T07:17:09.369Z,14.07
2022-10-04T07:18:09.414Z,14.17
2022-10-04T07:19:09.348Z,14.10
2022-10-04T07:20:09.356Z,14.15
2022-10-04T07:21:09.339Z,14.15
2022-10-04T07:22:09.319Z,14.20
2022-10-04T07:23:09.325Z,14.18
2022-10-04T07:24:09.296Z,14.14
2022-10-04T07:25:09.368Z,14.22
2022-10-04T07:26:09.267Z,14.15
2022-10-04T07:27:09.272Z,14.12
2022-10-04T07:28:09.296Z,14.20
2022-10-04T07:29:09.238Z,14.23
2022-10-04T07:30:09.242Z,14.23
2022-10-04T07:31:09.371Z,14.28
2022-10-04T07:32:09.197Z,14.32
2022-10-04T07:33:09.234Z,14.35
2022-10-04T07:34:09.187Z,14.36
2022-10-04T07:35:09.157Z,14.48
2022-10-04T07:36:09.151Z,14.53
2022-10-04T07:37:09.906Z,14.44
2022-10-04T07:38:09.130Z,14.45
2022-10-04T07:39:09.151Z,14.41
2022-10-04T07:40:09.338Z,14.50
2022-10-04T07:41:09.107Z,14.59
2022-10-04T07:42:09.089Z,14.44
2022-10-04T07:43:09.071Z,14.53
2022-10-04T07:44:09.090Z,14.40
2022-10-04T07:45:09.074Z,14.43
2022-10-04T07:46:09.290Z,14.48
2022-10-04T07:47:09.062Z,14.51
2022-10-04T07:48:09.033Z,14.63
2022-10-04T07:49:09.047Z,14.59
2022-10-04T07:50:08.998Z,14.66
2022-10-04T07:51:08.982Z,14.68
2022-10-04T07:52:09.010Z,14.68
2022-10-04T07:53:09.744Z,14.77
2022-10-04T07:54:08.954Z,14.77
2022-10-04T07:55:08.941Z,14.81
2022-10-04T07:56:08.927Z,14.85
2022-10-04T07:57:08.911Z,14.92
2022-10-04T07:58:08.940Z,14.89
2022-10-04T07:59:08.892Z,15.04
2022-10-04T08:00:08.879Z,15.09
2022-10-04T08:01:08.871Z,15.19
2022-10-04T08:02:09.088Z,15.25
2022-10-04T08:03:08.940Z,15.25
2022-10-04T08:04:08.973Z,15.33
2022-10-04T08:05:08.820Z,15.51
2022-10-04T08:06:08.806Z,15.59
2022-10-04T08:07:08.805Z,15.70
2022-10-04T08:08:08.786Z,15.79
2022-10-04T08:09:08.803Z,15.90
2022-10-04T08:10:08.807Z,16.00
2022-10-04T08:11:08.772Z,16.09
2022-10-04T08:12:08.743Z,16.01
2022-10-04T08:13:08.729Z,16.08
2022-10-04T08:14:08.720Z,16.13
2022-10-04T08:15:08.713Z,16.21
2022-10-04T08:16:08.766Z,16.24
2022-10-04T08:17:11.913Z,16.28
2022-10-04T08:18:09.694Z,16.38
2022-10-04T08:19:08.663Z,16.32
2022-10-04T08:20:08.656Z,16.38
2022-10-04T08:21:08.638Z,16.36
2022-10-04T08:22:08.782Z,16.39
2022-10-04T08:23:08.612Z,16.38
2022-10-04T08:24:08.607Z,16.41
2022-10-04T08:25:08.618Z,16.43
2022-10-04T08:26:08.585Z,16.39
2022-10-04T08:27:08.580Z,16.33
2022-10-04T08:28:08.675Z,16.41
2022-10-04T08:29:08.545Z,16.41
2022-10-04T08:30:08.566Z,16.35
2022-10-04T08:31:08.583Z,16.24
2022-10-04T08:32:08.516Z,16.32
2022-10-04T08:33:08.508Z,16.29
2022-10-04T08:34:08.534Z,16.33
2022-10-04T08:35:08.503Z,16.21
2022-10-04T08:36:08.467Z,16.28
2022-10-04T08:37:08.464Z,16.21
2022-10-04T08:38:08.460Z,16.24
2022-10-04T08:39:08.440Z,16.36
2022-10-04T08:40:12.660Z,16.41
2022-10-04T08:41:08.429Z,16.43
2022-10-04T08:42:08.399Z,16.50
2022-10-04T08:43:08.402Z,16.57
2022-10-04T08:44:08.397Z,16.69
2022-10-04T08:45:08.368Z,16.65
2022-10-04T08:46:08.484Z,16.74
2022-10-04T08:47:08.354Z,16.74
2022-10-04T08:48:08.405Z,16.84
2022-10-04T08:49:08.324Z,16.84
2022-10-04T08:50:08.332Z,16.90
2022-10-04T08:51:08.301Z,17.02
2022-10-04T08:52:08.342Z,17.08
2022-10-04T08:53:10.912Z,17.02
2022-10-04T08:54:08.268Z,17.05
2022-10-04T08:55:08.254Z,17.11
2022-10-04T08:56:08.256Z,17.14
2022-10-04T08:57:11.232Z,17.22
2022-10-04T08:58:09.251Z,17.42
2022-10-04T08:59:08.230Z,17.48
2022-10-04T09:00:08.201Z,17.38
2022-10-04T09:01:08.236Z,17.36
2022-10-04T09:02:08.180Z,17.29
2022-10-04T09:03:08.391Z,17.26
2022-10-04T09:04:08.176Z,17.12
2022-10-04T09:05:08.140Z,17.19
2022-10-04T09:06:08.152Z,17.11
2022-10-04T09:07:08.122Z,16.96
2022-10-04T09:08:08.105Z,16.89
2022-10-04T09:09:08.091Z,16.76
2022-10-04T09:10:08.142Z,16.66
2022-10-04T09:11:08.068Z,16.64
2022-10-04T09:12:08.075Z,16.56
2022-10-04T09:13:08.045Z,16.53
2022-10-04T09:14:08.034Z,16.39
2022-10-04T09:15:08.041Z,16.32
2022-10-04T09:16:08.174Z,16.35
2022-10-04T09:17:08.007Z,16.16
2022-10-04T09:18:07.993Z,16.08
2022-10-04T09:19:07.976Z,15.92
2022-10-04T09:20:33.355Z,15.91
2022-10-04T09:21:09.000Z,15.90
2022-10-04T09:22:07.972Z,15.76
2022-10-04T09:23:07.932Z,15.76
2022-10-04T09:24:07.941Z,15.73
2022-10-04T09:25:07.919Z,15.68
2022-10-04T09:26:07.910Z,15.59
2022-10-04T09:27:07.905Z,15.65
2022-10-04T09:28:07.939Z,15.65
2022-10-04T09:29:07.866Z,15.70
2022-10-04T09:30:07.854Z,15.67
2022-10-04T09:31:07.935Z,15.64
2022-10-04T09:32:07.831Z,15.70
2022-10-04T09:33:07.949Z,15.64
2022-10-04T09:34:07.815Z,15.76
2022-10-04T09:35:07.797Z,15.80
2022-10-04T09:36:07.792Z,15.86
2022-10-04T09:37:07.797Z,15.83
2022-10-04T09:38:07.885Z,15.86
2022-10-04T09:39:28.893Z,15.83
2022-10-04T09:40:08.737Z,15.88
2022-10-04T09:41:07.843Z,15.92
2022-10-04T09:42:07.752Z,15.94
2022-10-04T09:43:07.719Z,16.08
2022-10-04T09:44:07.698Z,16.09
2022-10-04T09:45:07.717Z,16.10
2022-10-04T09:46:07.764Z,16.04
2022-10-04T09:47:07.662Z,16.17
2022-10-04T09:48:07.679Z,16.21
2022-10-04T09:49:07.660Z,16.28
2022-10-04T09:50:07.633Z,16.36
2022-10-04T09:51:07.639Z,16.39
2022-10-04T09:52:07.705Z,16.28
2022-10-04T09:53:07.595Z,16.21
2022-10-04T09:54:07.649Z,16.24
2022-10-04T09:55:07.572Z,16.32
2022-10-04T09:56:07.569Z,16.33
2022-10-04T09:57:07.634Z,16.42
2022-10-04T09:58:07.534Z,16.49
2022-10-04T09:59:07.548Z,16.54
2022-10-04T10:00:07.522Z,16.54
2022-10-04T10:01:07.503Z,16.64
2022-10-04T10:02:07.588Z,16.72
2022-10-04T10:03:10.938Z,16.89
2022-10-04T10:04:08.468Z,16.94
2022-10-04T10:05:14.451Z,17.05
2022-10-04T10:06:07.443Z,16.97
2022-10-04T10:07:07.441Z,17.02
2022-10-04T10:08:07.480Z,17.08
2022-10-04T10:09:07.442Z,17.04
2022-10-04T10:10:07.421Z,17.02
2022-10-04T10:11:07.387Z,17.02
2022-10-04T10:12:07.402Z,16.96
2022-10-04T10:13:07.367Z,16.94
2022-10-04T10:14:07.368Z,16.90
2022-10-04T10:15:07.454Z,16.94
2022-10-04T10:16:07.406Z,16.96
2022-10-04T10:17:07.345Z,17.14
2022-10-04T10:18:07.317Z,17.14
2022-10-04T10:19:07.297Z,17.15
2022-10-04T10:20:07.298Z,17.29
2022-10-04T10:21:07.325Z,17.36
2022-10-04T10:22:07.257Z,17.34
2022-10-04T10:23:07.263Z,17.36
2022-10-04T10:24:07.271Z,17.41
2022-10-04T10:25:07.261Z,17.34
2022-10-04T10:26:07.249Z,17.22
2022-10-04T10:27:07.270Z,17.20
2022-10-04T10:28:07.254Z,17.08
2022-10-04T10:29:07.200Z,16.89
2022-10-04T10:30:07.172Z,16.89
2022-10-04T10:31:07.298Z,16.74
2022-10-04T10:32:07.148Z,16.72
2022-10-04T10:33:07.163Z,16.64
2022-10-04T10:34:07.126Z,16.65
2022-10-04T10:35:07.156Z,16.65
2022-10-04T10:36:07.102Z,16.78
2022-10-04T10:37:07.090Z,17.14
2022-10-04T10:38:07.084Z,17.36
2022-10-04T10:39:07.120Z,17.51
2022-10-04T10:40:07.065Z,17.57
2022-10-04T10:41:07.049Z,17.67
2022-10-04T10:42:07.076Z,17.71
2022-10-04T10:43:07.023Z,17.71
2022-10-04T10:44:07.026Z,17.82
2022-10-04T10:45:07.035Z,17.86
2022-10-04T10:46:07.042Z,17.87
2022-10-04T10:47:06.983Z,17.89
2022-10-04T10:48:06.963Z,17.79
2022-10-04T10:49:06.957Z,17.71
2022-10-04T10:50:06.949Z,17.74
2022-10-04T10:51:06.946Z,17.56
2022-10-04T10:52:06.945Z,17.54
2022-10-04T10:53:06.915Z,17.42
2022-10-04T10:54:06.911Z,17.49
2022-10-04T10:55:06.889Z,17.45
2022-10-04T10:56:07.037Z,17.30
2022-10-04T10:57:06.894Z,17.30
2022-10-04T10:58:07.548Z,17.30
2022-10-04T10:59:06.846Z,17.19
2022-10-04T11:00:06.856Z,17.19
2022-10-04T11:01:06.817Z,17.06
2022-10-04T11:02:06.940Z,17.15
2022-10-04T11:03:13.683Z,17.12
2022-10-04T11:04:07.864Z,17.15
2022-10-04T11:05:07.540Z,17.27
2022-10-04T11:06:06.761Z,17.41
2022-10-04T11:07:06.755Z,17.48
2022-10-04T11:08:06.748Z,17.56
2022-10-04T11:09:06.936Z,17.70
2022-10-04T11:10:06.714Z,17.67
2022-10-04T11:11:06.710Z,17.83
2022-10-04T11:12:06.692Z,17.94
2022-10-04T11:13:06.685Z,18.10
2022-10-04T11:14:06.716Z,18.07
2022-10-04T11:15:06.694Z,18.13
2022-10-04T11:16:06.776Z,18.13
2022-10-04T11:17:06.642Z,18.26
2022-10-04T11:18:06.631Z,18.40
2022-10-04T11:19:06.608Z,18.53
2022-10-04T11:20:06.604Z,18.53
2022-10-04T11:21:06.604Z,18.49
2022-10-04T11:22:06.574Z,18.55
2022-10-04T11:23:06.571Z,18.55
2022-10-04T11:24:06.638Z,18.60
2022-10-04T11:25:06.541Z,18.58
2022-10-04T11:26:06.711Z,18.55
2022-10-04T11:27:06.540Z,18.53
2022-10-04T11:28:06.578Z,18.65
2022-10-04T11:29:07.023Z,18.59
2022-10-04T11:30:06.510Z,18.66
2022-10-04T11:31:06.579Z,18.66
2022-10-04T11:32:06.471Z,18.63
2022-10-04T11:33:06.464Z,18.66
2022-10-04T11:34:06.447Z,18.66
2022-10-04T11:35:06.445Z,18.66
2022-10-04T11:36:06.456Z,18.56
2022-10-04T11:37:06.412Z,18.52
2022-10-04T11:38:06.401Z,18.35
2022-10-04T11:39:06.401Z,18.19
2022-10-04T11:40:06.379Z,18.11
2022-10-04T11:41:06.370Z,18.05
2022-10-04T11:42:06.349Z,17.92
2022-10-04T11:43:06.347Z,17.95
2022-10-04T11:44:06.332Z,17.83
2022-10-04T11:45:06.403Z,17.74
2022-10-04T11:46:10.637Z,17.80
2022-10-04T11:47:06.422Z,17.74
2022-10-04T11:48:06.289Z,17.80
2022-10-04T11:49:06.272Z,17.76
2022-10-04T11:50:06.467Z,17.63
2022-10-04T11:51:06.284Z,17.56
2022-10-04T11:52:06.233Z,17.52
2022-10-04T11:53:06.229Z,17.46
2022-10-04T11:54:06.218Z,17.48
2022-10-04T11:55:06.210Z,17.54
2022-10-04T11:56:06.203Z,17.45
2022-10-04T11:57:06.215Z,17.59
2022-10-04T11:58:11.169Z,17.70
2022-10-04T11:59:07.159Z,17.65
2022-10-04T12:00:06.151Z,17.80
2022-10-04T12:01:06.157Z,17.86
2022-10-04T12:02:06.178Z,18.03
2022-10-04T12:03:06.215Z,18.15
2022-10-04T12:04:06.362Z,18.22
2022-10-04T12:05:06.124Z,18.22
2022-10-04T12:06:06.076Z,18.38
2022-10-04T12:07:06.110Z,18.44
2022-10-04T12:08:06.055Z,18.44
2022-10-04T12:09:06.093Z,18.37
2022-10-04T12:10:06.034Z,18.44
2022-10-04T12:11:06.016Z,18.49
2022-10-04T12:12:06.039Z,18.45
2022-10-04T12:13:05.994Z,18.49
2022-10-04T12:14:05.989Z,18.43
2022-10-04T12:15:05.998Z,18.47
2022-10-04T12:16:06.009Z,18.43
2022-10-04T12:17:05.959Z,18.34
2022-10-04T12:18:05.969Z,18.37
2022-10-04T12:19:05.932Z,18.38
2022-10-04T12:20:11.248Z,18.25
2022-10-04T12:21:06.941Z,18.28
2022-10-04T12:22:05.925Z,18.26
2022-10-04T12:23:05.887Z,18.25
2022-10-04T12:24:05.889Z,18.31
2022-10-04T12:25:05.861Z,18.20
2022-10-04T12:26:05.863Z,18.23
2022-10-04T12:27:05.856Z,18.26
2022-10-04T12:28:05.951Z,18.28
2022-10-04T12:29:05.895Z,18.41
2022-10-04T12:30:05.807Z,18.40
2022-10-04T12:31:05.942Z,18.33
2022-10-04T12:32:05.844Z,18.23
2022-10-04T12:33:05.835Z,18.33
2022-10-04T12:34:05.804Z,18.34
2022-10-04T12:35:05.755Z,18.35
2022-10-04T12:36:05.744Z,18.40
2022-10-04T12:37:05.725Z,18.47
2022-10-04T12:38:05.718Z,18.58
2022-10-04T12:39:05.734Z,18.49
2022-10-04T12:40:05.746Z,18.50
2022-10-04T12:41:05.694Z,18.53
2022-10-04T12:42:05.667Z,18.56
2022-10-04T12:43:05.720Z,18.52
2022-10-04T12:44:05.649Z,18.47
2022-10-04T12:45:05.717Z,18.49
2022-10-04T12:46:05.683Z,18.63
2022-10-04T12:47:05.614Z,18.56
2022-10-04T12:48:05.610Z,18.53
2022-10-04T12:49:05.589Z,18.53
2022-10-04T12:50:05.718Z,18.56
2022-10-04T12:51:05.641Z,18.34
2022-10-04T12:52:05.558Z,18.31